Sugar Bowl, California Weather observations

Data are for observation ending at time listed.
 Day   Time    Ave.   Ave.  Ave.  Vector   Max.   Stn.    Total    Solar   Ave.   Snow 
  of    of     Air    Rel.  Wind   Wind    Wind   Baro.  Precip.   Rad.    Soil   Depth
Year   Day     Temp.  Hum.  Speed  Dir.    Gust   Pres.                    Temp.       
2015   (PST)    F      %     mph   deg.    mph     mb.     in.     W/m2     F      in. 
---------------------------------------------------------------------------------------  
  31    8:20   29.8    38   14.0    93     46.2   787.9    0.00      31    999.0    5.5
  31    8:30   29.7    40   13.3   101     29.1   788.2    0.00     111    999.0    5.3
  31    8:40   30.0    40   11.9    95     28.9   788.5    0.00      80    999.0    5.3
  31    8:50   30.7    37   11.3    98     29.3   788.6    0.00      80    999.0    5.2
  31    9:00   31.3    35   10.6    93     23.8   788.8    0.00      51    999.0    4.8
  31    9:10   31.5    36   11.9    90     26.9   788.9    0.00      48    999.0    5.1
  31    9:20   31.7    36   13.2    94     33.5   789.0    0.00     218    999.0    5.2
  31    9:30   32.3    35   12.2    98     28.9   789.1    0.00      97    999.0    5.0
  31    9:40   33.1    32   12.3    93     24.8   789.0    0.00     200    999.0    5.3
  31    9:50   33.7    31   13.3    90     35.8   789.1    0.00     144    999.0    4.9
  31   10:00   34.0    32    9.8    86     29.3   789.2    0.00     466    999.0    5.0
  31   10:10   35.1    31    7.4    74     23.0   789.4    0.00     534    999.0    4.8
  31   10:20   35.6    30    9.2    83     27.3   789.5    0.00     556    999.0    4.6
  31   10:30   36.3    31   10.1    85     27.7   789.6    0.00     575    999.0    4.7
  31   10:40   36.5    31   10.0    81     32.1   789.5    0.00     594    999.0    5.1
  31   10:50   37.2    30    9.8    81     36.5   789.3    0.00     610    999.0    5.0
  31   11:00   38.1    28    9.2    78     38.7   789.2    0.00     624    999.0    5.0
  31   11:10   38.4    28    8.3    76     30.7   789.2    0.00     637    999.0    5.0
  31   11:20   38.5    28   12.4    89     28.8   789.3    0.00     648    999.0    4.8
  31   11:30   38.8    27   12.8    85     34.4   789.2    0.00     657    999.0    4.9
  31   11:40   39.6    27   11.2    88     35.5   789.2    0.00     665    999.0    5.1
  31   11:50   40.2    26   12.1    88     33.8   789.0    0.00     671    999.0    5.0
  31   12:00   41.0    25    9.3    78     33.4   788.8    0.00     674    999.0    5.0
  31   12:10   41.9    22   10.7    84     39.5   788.6    0.00     677    999.0    5.1
  31   12:20   41.8    22   13.4    85     35.0   788.4    0.00     676    999.0    5.3
  31   12:30   42.1    23   12.6    81     32.0   788.1    0.00     675    999.0    5.2
  31   12:40   42.9    22    9.8    78     28.3   788.0    0.00     671    999.0    4.9
  31   12:50   43.4    19    9.2    65     34.0   787.9    0.00     665    999.0    5.3
  31   13:00   43.6    19    9.3    74     37.7   787.8    0.00     657    999.0    5.1
  31   13:10   43.5    21   11.9    82     43.0   787.8    0.00     646    999.0    5.2
  31   13:20   43.5    22   12.8    83     43.2   787.7    0.00     632    999.0    5.3
  31   13:30   43.8    21   14.4    84     36.5   787.8    0.00     506    999.0    5.2
  31   13:40   44.1    20   14.7    87     31.9   787.9    0.00     473    999.0    5.4
  31   13:50   44.4    22   13.6    89     37.3   787.9    0.00      91    999.0    5.1
  31   14:00   44.8    22   12.0    86     32.2   788.0    0.00     118    999.0    5.3
  31   14:10   44.7    22   12.5    92     39.2   788.2    0.00     102    999.0    5.0
  31   14:20   44.7    24   10.8    96     31.6   788.4    0.00     173    999.0    5.4
  31   14:30   44.7    24   10.6    98     30.6   788.6    0.00      70    999.0    5.4
  31   14:40   45.0    25    8.7    90     24.1   788.6    0.00      45    999.0    5.6
  31   14:50   44.9    24   10.2    91     28.4   788.6    0.00      43    999.0    5.6
  31   15:00   44.7    24    8.6    98     25.1   788.6    0.00      85    999.0    5.0
  31   15:10   44.6    23    9.2    98     22.5   788.7    0.00     150    999.0    5.4
  31   15:20   44.2    22    7.2    90     19.7   788.7    0.00      79    999.0    5.3
  31   15:30   43.8    21    9.0    90     25.1   788.7    0.00      48    999.0    5.5
  31   15:40   43.4    20   11.4    96     36.9   788.7    0.00      94    999.0    5.4
  31   15:50   43.2    21   13.4    94     29.1   788.7    0.00      79    999.0    4.9
  31   16:00   42.6    23   13.6    93     35.5   788.8    0.00     143    999.0    5.2
  31   16:10   42.3    25   11.5    95     29.5   788.9    0.00      29    999.0    5.6
  31   16:20   42.0    25    9.7    90     21.0   788.9    0.00      15    999.0    5.8
  31   16:30   41.8    26    8.1    88     28.9   789.1    0.00      10    999.0    5.8
  31   16:40   41.5    26    6.0    78     17.5   789.2    0.00       9    999.0    6.1
  31   16:50   41.0    27    4.7    71     20.0   789.1    0.00       8    999.0    5.9
  31   17:00   40.6    28    4.4    69     11.6   789.0    0.00       7    999.0    6.1
  31   17:10   40.2    29    3.8    58      9.6   789.0    0.00       5    999.0    6.0
  31   17:20   40.1    29    4.1    52     10.0   788.9    0.00       4    999.0    6.1
  31   17:30   39.9    29    4.2    55     13.7   788.9    0.00       2    999.0    6.1
  31   17:40   39.5    30    3.8    61      8.4   788.8    0.00       0    999.0    6.1
  31   17:50   39.0    31    3.8    58     10.7   788.7    0.00       0    999.0    6.2
  31   18:00   39.4    30    4.5    54     11.4   788.9    0.00       0    999.0    6.2
  31   18:10   39.8    27    4.1    57     13.9   789.0    0.00       0    999.0    6.0
  31   18:20   39.2    30    4.3    60     11.8   789.2    0.00       0    999.0    6.0
  31   18:30   38.5    32    4.5    63     15.2   789.3    0.00       0    999.0    5.9
  31   18:40   38.9    30    4.5    55     10.1   789.2    0.00       0    999.0    6.1
  31   18:50   38.8    30    4.5    53     12.3   789.4    0.00       0    999.0    5.9
  31   19:00   38.7    28    3.6    51     14.8   789.4    0.00       0    999.0    5.9
  31   19:10   37.4    32    2.1    54      7.2   789.6    0.00       0    999.0    5.7
  31   19:20   36.9    33    2.1    58      6.1   789.6    0.00       0    999.0    6.1
  31   19:30   36.5    33    2.2    72      8.4   789.5    0.00       0    999.0    6.0
  31   19:40   35.9    34    1.1    88      4.0   789.6    0.00       0    999.0    6.0
  31   19:50   35.2    35    1.1   284      4.9   789.5    0.00       0    999.0    5.9
  31   20:00   34.4    39    2.0   307      8.1   789.4    0.00       0    999.0    5.9
  31   20:10   33.5    40    1.3   229      8.6   789.5    0.00       0    999.0    5.8
  31   20:20   32.9    41    2.2   189     12.3   789.6    0.00       0    999.0    5.8
  31   20:30   32.5    42    2.1   216      6.6   789.7    0.00       0    999.0    5.8
  31   20:40   32.7    40    2.4   205     12.2   789.9    0.00       0    999.0    5.7
  31   20:50   33.5    38    2.1   218     11.0   790.0    0.00       0    999.0    5.9
  31   21:00   34.2    35    2.1   219      7.3   790.1    0.00       0    999.0    6.0
  31   21:10   34.4    34    2.0   221      7.6   790.2    0.00       0    999.0    5.7
  31   21:20   34.2    36    1.8   256      6.1   790.3    0.00       0    999.0    5.7
  31   21:30   33.7    40    2.0   276      6.4   790.5    0.00       0    999.0    5.7
  31   21:40   33.5    41    0.9   218      4.3   790.7    0.00       0    999.0    5.7
  31   21:50   32.3    44    1.1   151      8.1   790.8    0.00       0    999.0    5.7
  31   22:00   30.8    46    0.9   194      6.7   790.8    0.00       0    999.0    5.6
  31   22:10   30.3    48    0.1   185      1.8   790.9    0.00       0    999.0    5.8
  31   22:20   29.4    49    0.1   200      0.9   790.8    0.00       0    999.0    5.9
  31   22:30   29.1    50    1.3   176      7.2   790.8    0.00       0    999.0    6.0
  31   22:40   30.4    48    1.2   118      6.5   790.7    0.00       0    999.0    5.8
  31   22:50   29.0    52    1.0   191      4.3   790.7    0.00       0    999.0    5.7
  31   23:00   31.0    47    1.5   206      6.2   790.8    0.00       0    999.0    5.9
  31   23:10   31.6    46    2.9   200     11.3   790.9    0.00       0    999.0    5.7
  31   23:20   31.8    46    1.3   235      3.7   791.0    0.00       0    999.0    5.7
  31   23:30   31.9    46    0.8   232      3.9   791.2    0.00       0    999.0    5.6
  31   23:40   31.5    46    1.6   210      4.6   791.2    0.00       0    999.0    5.6
  31   23:50   30.2    47    0.5   169      4.0   791.2    0.00       0    999.0    5.8
  32    0:00   28.7    51    0.2   263      1.8   791.1    0.00       0    999.0    5.9
  32    0:10   28.4    50    0.4   237      2.2   791.1    0.00       0    999.0    5.9
  32    0:20   28.8    47    0.3   191      2.0   791.0    0.00       0    999.0    5.9
  32    0:30   28.9    46    0.7   126      2.9   791.0    0.00       0    999.0    5.9
  32    0:40   28.6    50    0.2    97      1.5   790.9    0.00       0    999.0    6.0
  32    0:50   28.6    47    0.2    51      1.8   790.9    0.00       0    999.0    6.0
  32    1:00   28.6    44    0.1   204      1.2   791.0    0.00       0    999.0    6.1
  32    1:10   29.1    41    0.2   160      3.5   791.0    0.00       0    999.0    5.9
  32    1:20   29.3    44    0.1    35      0.9   790.9    0.00       0    999.0    5.8
  32    1:30   28.6    48    0.1   190      1.2   790.9    0.00       0    999.0    6.0
  32    1:40   28.9    43    0.2   145      1.5   790.9    0.00       0    999.0    5.9
  32    1:50   29.5    39    0.4   149      3.3   790.8    0.00       0    999.0    5.9
  32    2:00   29.8    37    0.3   185      1.6   790.8    0.00       0    999.0    5.7
  32    2:10   30.8    34    0.7   174      4.5   790.8    0.00       0    999.0    5.7
  32    2:20   30.8    35    0.1    90      1.2   790.7    0.00       0    999.0    5.7
  32    2:30   31.0    35    1.0   118      5.2   790.6    0.00       0    999.0    5.7
  32    2:40   31.3    34    0.5   169      2.7   790.6    0.00       0    999.0    5.8
  32    2:50   33.1    30    0.8   190      5.2   790.5    0.00       0    999.0    5.7
  32    3:00   32.4    33    0.3   189      4.6   790.5    0.00       0    999.0    5.8
  32    3:10   32.2    33    0.3    78      2.8   790.5    0.00       0    999.0    5.7
  32    3:20   32.2    32    0.3   171      1.8   790.5    0.00       0    999.0    5.7
  32    3:30   32.5    31    0.0   204      0.7   790.5    0.00       0    999.0    5.9
  32    3:40   33.1    30    0.7   195      3.0   790.4    0.00       0    999.0    5.7
  32    3:50   33.1    34    0.1    24      1.2   790.5    0.00       0    999.0    5.7
  32    4:00   32.0    43    0.2    87      1.8   790.6    0.00       0    999.0    5.9
  32    4:10   31.4    43    0.1   324      1.2   790.5    0.00       0    999.0    5.8
  32    4:20   31.1    42    0.3   289      1.5   790.5    0.00       0    999.0    5.9
  32    4:30   31.5    37    0.0   300      0.1   790.5    0.00       0    999.0    5.9
  32    4:40   31.6    36    0.0   306      0.7   790.5    0.00       0    999.0    5.8
  32    4:50   31.7    38    0.1   287      1.7   790.6    0.00       0    999.0    5.9
  32    5:00   32.6    32    0.1   184      1.6   790.6    0.00       0    999.0    6.0
  32    5:10   33.3    33    0.4    82      2.6   790.7    0.00       0    999.0    5.9
  32    5:20   32.5    37    0.0     0      0.0   790.7    0.00       0    999.0    5.8
  32    5:30   31.7    38    0.0     0      0.0   790.7    0.00       0    999.0    6.0
  32    5:40   32.1    36    0.0   285      0.6   790.7    0.00       0    999.0    5.9
  32    5:50   32.4    36    0.1   284      1.2   790.7    0.00       0    999.0    6.0
  32    6:00   32.5    33    0.0     0      0.0   790.7    0.00       0    999.0    5.9
  32    6:10   32.6    33    0.0     0      0.0   790.7    0.00       0    999.0    6.0
  32    6:20   32.3    36    0.0     0      0.0   790.7    0.00       0    999.0    5.7
  32    6:30   32.7    36    0.0    86      1.5   790.7    0.00       0    999.0    6.2
  32    6:40   33.4    33    0.1   160      1.3   790.7    0.00       0    999.0    6.0
  32    6:50   34.0    33    0.1   214      1.0   790.8    0.00       0    999.0    5.6
  32    7:00   33.5    34    0.0     0      0.0   790.8    0.00       1    999.0    5.8
  32    7:10   33.1    36    0.1   298      1.1   791.0    0.00       3    999.0    5.7
  32    7:20   32.5    37    0.0     0      0.0   791.1    0.00       8    999.0    5.8
  32    7:30   32.4    36    0.0     0      0.0   791.2    0.00      11    999.0    6.0
  32    7:40   32.9    33    0.0     0      0.0   791.4    0.00      13    999.0    5.7
  32    7:50   33.3    34    0.1    89      1.2   791.4    0.00      14    999.0    5.8
  32    8:00   33.8    33    0.5    71      3.7   791.5    0.00      18    999.0    5.7
  32    8:10   34.3    31    0.0     0      0.0   791.5    0.00      28    999.0    6.0

Return to Sugar Bowl graphs page.


Western Regional Climate Center,wrcc@dri.edu